createdAt,value
2023-01-23T00:00:59.198Z,90.16
2023-01-23T00:03:25.569Z,90.15
2023-01-23T00:05:51.890Z,89.69
2023-01-23T00:08:18.297Z,89.20
2023-01-23T00:10:44.648Z,88.97
2023-01-23T00:13:11.033Z,88.76
2023-01-23T00:15:37.395Z,88.68
2023-01-23T00:18:03.707Z,88.45
2023-01-23T00:20:30.257Z,88.25
2023-01-23T00:22:56.599Z,88.18
2023-01-23T00:25:22.930Z,88.30
2023-01-23T00:27:49.323Z,88.47
2023-01-23T00:30:15.639Z,88.85
2023-01-23T00:32:42.051Z,89.09
2023-01-23T00:35:08.366Z,89.19
2023-01-23T00:37:34.728Z,89.29
2023-01-23T00:40:01.309Z,89.45
2023-01-23T00:42:27.678Z,89.67
2023-01-23T00:44:53.992Z,89.82
2023-01-23T00:47:20.389Z,90.05
2023-01-23T00:49:46.701Z,90.22
2023-01-23T00:52:13.069Z,90.47
2023-01-23T00:54:39.491Z,90.53
2023-01-23T00:57:05.783Z,90.64
2023-01-23T00:59:32.104Z,90.82
2023-01-23T01:01:58.643Z,90.91
2023-01-23T01:04:24.830Z,91.06
2023-01-23T01:06:51.167Z,91.09
2023-01-23T01:09:17.522Z,91.16
2023-01-23T01:11:43.854Z,91.26
2023-01-23T01:14:10.227Z,91.41
2023-01-23T01:16:36.552Z,91.45
2023-01-23T01:19:02.881Z,91.45
2023-01-23T01:21:31.455Z,91.40
2023-01-23T01:23:55.654Z,91.51
2023-01-23T01:26:22.034Z,91.62
2023-01-23T01:28:48.404Z,91.65
2023-01-23T01:31:14.917Z,91.82
2023-01-23T01:33:41.106Z,92.12
2023-01-23T01:36:07.535Z,92.19
2023-01-23T01:38:33.880Z,92.28
2023-01-23T01:41:00.254Z,92.63
2023-01-23T01:43:26.599Z,92.90
2023-01-23T01:45:52.978Z,93.00
2023-01-23T01:48:19.334Z,92.93
2023-01-23T01:50:45.752Z,92.87
2023-01-23T01:53:12.073Z,92.58
2023-01-23T01:55:38.403Z,92.36
2023-01-23T01:58:04.791Z,92.20
2023-01-23T02:00:31.165Z,91.91
2023-01-23T02:02:57.488Z,91.99
2023-01-23T02:05:23.835Z,92.32
2023-01-23T02:07:50.156Z,92.73
2023-01-23T02:10:16.545Z,93.38
2023-01-23T02:12:42.905Z,93.75
2023-01-23T02:15:09.235Z,93.96
2023-01-23T02:17:35.599Z,94.08
2023-01-23T02:20:01.985Z,94.32
2023-01-23T02:22:28.301Z,94.50
2023-01-23T02:24:54.653Z,94.65
2023-01-23T02:27:21.086Z,95.04
2023-01-23T02:29:47.450Z,95.09
2023-01-23T02:32:13.777Z,95.39
2023-01-23T02:34:40.192Z,95.83
2023-01-23T02:37:06.512Z,95.56
2023-01-23T02:39:32.897Z,95.57
2023-01-23T02:41:59.255Z,95.22
2023-01-23T02:44:25.627Z,95.24
2023-01-23T02:46:51.994Z,95.36
2023-01-23T02:49:18.367Z,95.47
2023-01-23T02:51:44.686Z,95.13
2023-01-23T02:54:11.123Z,95.22
2023-01-23T02:56:37.408Z,95.21
2023-01-23T02:59:03.787Z,95.04
2023-01-23T03:01:30.147Z,94.95
2023-01-23T03:03:56.555Z,94.92
2023-01-23T03:06:22.911Z,94.62
2023-01-23T03:08:49.248Z,94.65
2023-01-23T03:11:15.632Z,94.65
2023-01-23T03:13:42.035Z,94.52
2023-01-23T03:16:08.443Z,94.46
2023-01-23T03:18:48.961Z,94.52
2023-01-23T03:21:01.115Z,94.58
2023-01-23T03:23:27.450Z,94.57
2023-01-23T03:25:53.855Z,94.37
2023-01-23T03:28:20.215Z,94.31
2023-01-23T03:30:46.595Z,94.18
2023-01-23T03:33:12.950Z,94.31
2023-01-23T03:35:39.304Z,94.32
2023-01-23T03:38:05.666Z,94.38
2023-01-23T03:40:32.032Z,94.34
2023-01-23T03:42:58.368Z,94.44
2023-01-23T03:45:24.740Z,94.41
2023-01-23T03:47:51.083Z,94.61
2023-01-23T03:50:17.655Z,94.60
2023-01-23T03:52:43.816Z,94.67
2023-01-23T03:55:10.155Z,94.90
2023-01-23T03:57:36.514Z,94.84
2023-01-23T04:00:02.948Z,95.02
2023-01-23T04:02:29.245Z,94.87
2023-01-23T04:04:55.565Z,94.93
2023-01-23T04:07:21.893Z,94.62
2023-01-23T04:09:48.287Z,94.66
2023-01-23T04:12:14.611Z,93.90
2023-01-23T04:14:40.955Z,93.67
2023-01-23T04:17:07.353Z,93.46
2023-01-23T04:19:33.720Z,92.93
2023-01-23T04:22:00.042Z,92.57
2023-01-23T04:24:26.407Z,92.70
2023-01-23T04:26:52.725Z,92.37
2023-01-23T04:29:19.069Z,92.33
2023-01-23T04:31:45.571Z,92.03
2023-01-23T04:34:11.834Z,91.98
2023-01-23T04:36:38.195Z,91.76
2023-01-23T04:39:04.543Z,91.30
2023-01-23T04:41:30.859Z,91.18
2023-01-23T04:43:57.201Z,90.99
2023-01-23T04:46:23.845Z,90.69
2023-01-23T04:48:50.119Z,90.50
2023-01-23T04:51:16.499Z,90.50
2023-01-23T04:53:42.830Z,90.52
2023-01-23T04:56:09.141Z,90.72
2023-01-23T04:58:35.487Z,91.01
2023-01-23T05:01:01.840Z,91.32
2023-01-23T05:03:28.167Z,91.56
2023-01-23T05:05:54.527Z,92.17
2023-01-23T05:08:20.860Z,92.27
2023-01-23T05:10:47.181Z,92.33
2023-01-23T05:13:13.557Z,92.35
2023-01-23T05:15:39.952Z,92.43
2023-01-23T05:18:06.336Z,92.37
2023-01-23T05:20:32.668Z,92.27
2023-01-23T05:22:59.038Z,92.41
2023-01-23T05:25:25.386Z,92.33
2023-01-23T05:27:51.815Z,92.13
2023-01-23T05:30:18.249Z,92.15
2023-01-23T05:32:44.531Z,91.99
2023-01-23T05:35:10.903Z,92.02
2023-01-23T05:37:37.245Z,92.06
2023-01-23T05:40:03.606Z,92.26
2023-01-23T05:42:29.984Z,92.39
2023-01-23T05:44:57.445Z,92.48
2023-01-23T05:47:24.819Z,92.52
2023-01-23T05:49:51.145Z,92.76
2023-01-23T05:52:17.555Z,92.98
2023-01-23T05:54:43.868Z,92.95
2023-01-23T05:57:10.251Z,92.80
2023-01-23T05:59:36.783Z,92.96
2023-01-23T06:02:03.122Z,92.60
2023-01-23T06:04:29.443Z,92.57
2023-01-23T06:06:55.832Z,92.72
2023-01-23T06:09:22.228Z,92.89
2023-01-23T06:11:48.609Z,93.28
2023-01-23T06:14:14.976Z,93.50
2023-01-23T06:16:41.296Z,93.57
2023-01-23T06:19:07.658Z,93.25
2023-01-23T06:21:34.035Z,92.83
2023-01-23T06:24:00.386Z,92.58
2023-01-23T06:26:26.780Z,92.39
2023-01-23T06:28:53.331Z,91.91
2023-01-23T06:31:19.755Z,91.83
2023-01-23T06:33:46.157Z,91.90
2023-01-23T06:36:12.535Z,91.96
2023-01-23T06:38:38.889Z,92.23
2023-01-23T06:41:05.338Z,92.83
2023-01-23T06:43:31.658Z,92.97
2023-01-23T06:45:58.502Z,93.18
2023-01-23T06:48:24.842Z,93.40
2023-01-23T06:50:51.301Z,93.72
2023-01-23T06:53:17.585Z,94.08
2023-01-23T06:55:44.223Z,94.45
2023-01-23T06:58:10.580Z,94.81
2023-01-23T07:00:36.922Z,95.17
2023-01-23T07:03:03.332Z,96.14
2023-01-23T07:05:29.690Z,97.13
2023-01-23T07:07:56.069Z,98.04
2023-01-23T07:10:22.591Z,98.27
2023-01-23T07:12:48.805Z,98.46
2023-01-23T07:15:15.194Z,98.51
2023-01-23T07:17:41.522Z,98.14
2023-01-23T07:20:07.913Z,96.92
2023-01-23T07:22:34.230Z,96.12
2023-01-23T07:25:00.620Z,95.36
2023-01-23T07:27:26.980Z,95.40
2023-01-23T07:29:53.314Z,96.06
2023-01-23T07:32:19.938Z,96.16
2023-01-23T07:34:46.319Z,96.10
2023-01-23T07:37:12.682Z,96.54
2023-01-23T07:39:39.087Z,96.38
2023-01-23T07:42:05.807Z,96.73
2023-01-23T07:44:32.175Z,96.66
2023-01-23T07:46:58.536Z,97.13
2023-01-23T07:49:24.887Z,96.98
2023-01-23T07:51:51.329Z,96.86
2023-01-23T07:54:17.741Z,97.21
2023-01-23T07:56:44.021Z,97.30
2023-01-23T07:59:10.361Z,97.15
2023-01-23T08:01:36.826Z,97.35
2023-01-23T08:04:03.236Z,97.12
2023-01-23T08:06:29.568Z,97.11
2023-01-23T08:08:55.955Z,97.47
2023-01-23T08:11:22.272Z,97.51
2023-01-23T08:13:48.625Z,98.15
2023-01-23T08:16:15.134Z,98.16
2023-01-23T08:18:41.437Z,98.21
2023-01-23T08:21:07.864Z,97.87
2023-01-23T08:23:34.237Z,97.46
2023-01-23T08:26:00.536Z,97.18
2023-01-23T08:28:27.061Z,96.87
2023-01-23T08:30:53.372Z,96.31
2023-01-23T08:33:19.892Z,96.05
2023-01-23T08:35:46.317Z,95.55
2023-01-23T08:38:12.699Z,94.72
2023-01-23T08:40:39.067Z,94.26
2023-01-23T08:43:05.442Z,93.72
2023-01-23T08:45:31.907Z,93.64
2023-01-23T08:47:58.242Z,93.25
2023-01-23T08:50:24.631Z,93.01
2023-01-23T08:52:51.089Z,92.69
2023-01-23T08:55:17.562Z,92.53
2023-01-23T08:57:43.907Z,92.17
2023-01-23T09:00:10.575Z,91.81
2023-01-23T09:02:36.911Z,91.07
2023-01-23T09:05:03.280Z,90.73
2023-01-23T09:07:29.666Z,90.51
2023-01-23T09:09:56.083Z,89.84
2023-01-23T09:12:22.451Z,89.14
2023-01-23T09:14:48.805Z,89.05
2023-01-23T09:17:15.260Z,87.71
2023-01-23T09:19:41.579Z,87.13
2023-01-23T09:22:07.973Z,86.35
2023-01-23T09:24:34.391Z,86.50
2023-01-23T09:27:00.788Z,85.96
2023-01-23T09:29:27.111Z,86.10
2023-01-23T09:31:53.535Z,86.26
2023-01-23T09:34:19.857Z,86.93
2023-01-23T09:36:46.184Z,86.79
2023-01-23T09:39:12.550Z,87.09
2023-01-23T09:41:38.855Z,87.05
2023-01-23T09:44:05.215Z,87.29
2023-01-23T09:46:31.558Z,87.21
2023-01-23T09:48:57.930Z,87.66
2023-01-23T09:51:24.718Z,87.72
2023-01-23T09:53:51.018Z,87.87
2023-01-23T09:56:17.361Z,88.40
2023-01-23T09:58:43.700Z,88.32
2023-01-23T10:01:10.108Z,88.20
2023-01-23T10:03:36.705Z,88.68
2023-01-23T10:06:03.217Z,89.12
2023-01-23T10:08:29.630Z,89.19
2023-01-23T10:10:56.006Z,89.23
2023-01-23T10:13:22.337Z,89.73
2023-01-23T10:15:48.721Z,89.87
2023-01-23T10:18:15.093Z,89.82
2023-01-23T10:20:41.422Z,89.93
2023-01-23T10:23:07.750Z,89.79
2023-01-23T10:25:34.126Z,90.26
2023-01-23T10:28:00.478Z,90.07
2023-01-23T10:30:26.908Z,89.88
2023-01-23T10:32:53.177Z,89.67
2023-01-23T10:35:19.817Z,89.17
2023-01-23T10:37:45.900Z,89.22
2023-01-23T10:40:12.323Z,89.51
2023-01-23T10:42:38.678Z,89.63
2023-01-23T10:45:05.016Z,89.82
2023-01-23T10:47:33.198Z,89.85
2023-01-23T10:49:57.809Z,89.99
2023-01-23T10:52:24.167Z,90.72
2023-01-23T10:54:50.701Z,90.82
2023-01-23T10:57:17.057Z,91.38
2023-01-23T10:59:43.433Z,91.35
2023-01-23T11:02:09.897Z,91.39
2023-01-23T11:04:36.181Z,91.28
2023-01-23T11:07:02.530Z,91.05
2023-01-23T11:09:28.909Z,91.10
2023-01-23T11:11:55.243Z,91.21
2023-01-23T11:14:21.660Z,91.20
2023-01-23T11:16:48.278Z,91.24
2023-01-23T11:19:14.625Z,91.18
2023-01-23T11:21:41.017Z,91.24
2023-01-23T11:24:07.389Z,91.61
2023-01-23T11:26:33.711Z,91.73
2023-01-23T11:29:00.123Z,91.76
2023-01-23T11:31:26.640Z,92.83
2023-01-23T11:33:52.940Z,93.42
2023-01-23T11:36:19.261Z,93.44
2023-01-23T11:38:52.591Z,93.51
2023-01-23T11:41:11.984Z,93.33
2023-01-23T11:43:38.376Z,92.98
2023-01-23T11:46:04.795Z,93.13
2023-01-23T11:48:31.138Z,93.28
2023-01-23T11:50:57.520Z,93.04
2023-01-23T11:53:33.535Z,92.79
2023-01-23T11:55:50.177Z,92.96
2023-01-23T11:58:16.555Z,93.21
2023-01-23T12:00:42.892Z,93.50
2023-01-23T12:03:09.281Z,93.42
2023-01-23T12:05:35.597Z,93.17
2023-01-23T12:08:02.287Z,93.17
2023-01-23T12:10:28.642Z,93.43
2023-01-23T12:12:55.015Z,93.45
2023-01-23T12:15:21.434Z,94.20
2023-01-23T12:17:47.775Z,94.21
2023-01-23T12:20:14.124Z,93.98
2023-01-23T12:22:40.465Z,93.71
2023-01-23T12:25:07.151Z,93.75
2023-01-23T12:27:33.537Z,93.81
2023-01-23T12:29:59.891Z,93.50
2023-01-23T12:32:26.307Z,92.90
2023-01-23T12:34:52.694Z,92.89
2023-01-23T12:37:29.942Z,93.08
2023-01-23T12:39:45.396Z,93.29
2023-01-23T12:42:11.778Z,93.44
2023-01-23T12:44:38.131Z,93.49
2023-01-23T12:47:04.567Z,93.44
2023-01-23T12:49:30.873Z,93.46
2023-01-23T12:51:57.294Z,93.41
2023-01-23T12:54:23.624Z,93.38
2023-01-23T12:59:16.369Z,93.82
2023-01-23T13:01:42.719Z,93.67
2023-01-23T13:04:09.027Z,93.88
2023-01-23T13:06:35.397Z,93.85
2023-01-23T13:09:12.473Z,93.91
2023-01-23T13:11:28.240Z,94.06
2023-01-23T13:13:54.545Z,94.14
2023-01-23T13:16:21.179Z,94.00
2023-01-23T13:18:47.508Z,94.35
2023-01-23T13:21:13.900Z,95.96
2023-01-23T13:23:40.287Z,97.42
2023-01-23T13:26:06.624Z,98.21
2023-01-23T13:28:43.950Z,99.10
2023-01-23T13:30:59.525Z,100.00
2023-01-23T13:33:25.831Z,100.00
2023-01-23T13:35:52.212Z,100.00
2023-01-23T13:38:18.537Z,100.00
2023-01-23T13:40:45.157Z,100.00
2023-01-23T13:43:11.222Z,100.00
2023-01-23T13:45:37.642Z,100.00
2023-01-23T13:48:04.038Z,100.00
2023-01-23T13:50:30.472Z,100.00
2023-01-23T13:52:56.839Z,100.00
2023-01-23T13:55:23.295Z,100.00
2023-01-23T13:57:49.972Z,100.00
2023-01-23T14:00:16.307Z,100.00
2023-01-23T14:02:42.668Z,100.00
2023-01-23T14:05:09.057Z,100.00
2023-01-23T14:07:35.375Z,100.00
2023-01-23T14:10:01.763Z,100.00
2023-01-23T14:12:28.136Z,100.00
2023-01-23T14:14:54.619Z,100.00
2023-01-23T14:17:20.926Z,100.00
2023-01-23T14:19:47.276Z,100.00
2023-01-23T14:22:13.656Z,100.00
2023-01-23T14:24:40.154Z,100.00
2023-01-23T14:27:08.197Z,100.00
2023-01-23T14:29:32.968Z,100.00
2023-01-23T14:31:59.399Z,100.00
2023-01-23T14:34:25.793Z,100.00
2023-01-23T14:36:52.126Z,100.00
2023-01-23T14:39:18.439Z,100.00
2023-01-23T14:41:46.291Z,100.00
2023-01-23T14:44:13.557Z,100.00
2023-01-23T14:46:39.994Z,100.00
2023-01-23T14:49:06.419Z,100.00
2023-01-23T14:51:32.849Z,100.00
2023-01-23T14:53:59.273Z,100.00
2023-01-23T14:56:26.370Z,100.00
2023-01-23T14:58:51.893Z,100.00
2023-01-23T15:01:18.364Z,100.00
2023-01-23T15:03:44.643Z,100.00
2023-01-23T15:06:11.022Z,100.00
2023-01-23T15:08:37.402Z,100.00
2023-01-23T15:11:03.748Z,100.00
2023-01-23T15:13:30.165Z,100.00
2023-01-23T15:15:56.830Z,100.00
2023-01-23T15:18:23.202Z,100.00
2023-01-23T15:20:49.550Z,100.00
2023-01-23T15:23:16.155Z,100.00
2023-01-23T15:25:42.551Z,100.00
2023-01-23T15:28:09.088Z,100.00
2023-01-23T15:30:36.763Z,100.00
2023-01-23T15:33:03.045Z,100.00
2023-01-23T15:35:29.396Z,100.00
2023-01-23T15:37:55.730Z,100.00
2023-01-23T15:40:22.067Z,100.00
2023-01-23T15:42:48.502Z,100.00
2023-01-23T15:45:14.867Z,100.00
2023-01-23T15:47:41.207Z,100.00
2023-01-23T15:50:07.752Z,100.00
2023-01-23T15:52:34.462Z,100.00
2023-01-23T15:55:00.848Z,100.00
2023-01-23T15:57:27.168Z,99.64
2023-01-23T15:59:53.546Z,99.55
2023-01-23T16:02:39.377Z,99.79
2023-01-23T16:04:46.572Z,99.95
2023-01-23T16:07:12.896Z,99.71
2023-01-23T16:09:39.621Z,98.75
2023-01-23T16:12:05.984Z,98.24
2023-01-23T16:14:32.753Z,98.03
2023-01-23T16:17:11.371Z,97.49
2023-01-23T16:19:25.577Z,97.36
2023-01-23T16:22:03.438Z,97.07
2023-01-23T16:24:18.593Z,97.45
2023-01-23T16:26:44.863Z,97.54
2023-01-23T16:29:14.099Z,97.15
2023-01-23T16:31:38.940Z,96.69
2023-01-23T16:34:05.206Z,96.45
2023-01-23T16:36:31.567Z,96.20
2023-01-23T16:38:57.969Z,95.83
2023-01-23T16:41:24.323Z,95.43
2023-01-23T16:43:50.792Z,95.00
2023-01-23T16:46:17.157Z,94.98
2023-01-23T16:48:43.459Z,95.07
2023-01-23T16:51:09.790Z,94.84
2023-01-23T16:53:36.280Z,94.77
2023-01-23T16:56:02.669Z,95.00
2023-01-23T16:58:29.022Z,95.10
2023-01-23T17:00:55.416Z,94.75
2023-01-23T17:03:21.873Z,94.64
2023-01-23T17:05:48.350Z,94.70
2023-01-23T17:08:15.748Z,94.75
2023-01-23T17:10:46.501Z,94.75
2023-01-23T17:13:08.482Z,94.79
2023-01-23T17:15:34.817Z,95.47
2023-01-23T17:18:03.686Z,95.58
2023-01-23T17:20:30.082Z,95.64
2023-01-23T17:22:56.465Z,95.62
2023-01-23T17:25:22.781Z,95.65
2023-01-23T17:28:06.911Z,95.70
2023-01-23T17:30:15.735Z,95.52
2023-01-23T17:32:42.076Z,95.46
2023-01-23T17:35:08.526Z,95.33
2023-01-23T17:37:34.851Z,95.24
2023-01-23T17:40:01.219Z,94.98
2023-01-23T17:42:27.645Z,95.08
2023-01-23T17:44:53.988Z,94.62
2023-01-23T17:47:20.324Z,94.78
2023-01-23T17:49:46.776Z,94.55
2023-01-23T17:52:13.152Z,94.40
2023-01-23T17:54:39.518Z,94.59
2023-01-23T17:57:06.192Z,94.71
2023-01-23T17:59:32.753Z,94.78
2023-01-23T18:01:59.393Z,94.61
2023-01-23T18:04:25.701Z,94.08
2023-01-23T18:06:52.099Z,94.09
2023-01-23T18:09:18.417Z,93.85
2023-01-23T18:11:44.809Z,93.87
2023-01-23T18:14:11.167Z,94.04
2023-01-23T18:16:37.567Z,93.91
2023-01-23T18:19:03.902Z,93.83
2023-01-23T18:21:31.662Z,93.75
2023-01-23T18:23:58.077Z,93.49
2023-01-23T18:26:24.425Z,93.49
2023-01-23T18:28:50.788Z,93.64
2023-01-23T18:31:17.285Z,93.73
2023-01-23T18:33:43.493Z,93.85
2023-01-23T18:36:09.876Z,94.08
2023-01-23T18:38:36.245Z,93.87
2023-01-23T18:41:02.638Z,93.81
2023-01-23T18:43:28.981Z,93.88
2023-01-23T18:45:56.588Z,93.93
2023-01-23T18:48:25.504Z,93.73
2023-01-23T18:50:48.085Z,93.52
2023-01-23T18:53:16.391Z,93.65
2023-01-23T18:55:40.938Z,93.18
2023-01-23T18:58:07.309Z,92.96
2023-01-23T19:00:33.735Z,92.86
2023-01-23T19:03:00.109Z,92.52
2023-01-23T19:05:26.533Z,92.23
2023-01-23T19:07:52.884Z,92.27
2023-01-23T19:10:19.216Z,92.29
2023-01-23T19:12:45.551Z,92.27
2023-01-23T19:15:11.929Z,92.13
2023-01-23T19:17:38.450Z,91.90
2023-01-23T19:20:04.793Z,91.70
2023-01-23T19:22:31.201Z,91.65
2023-01-23T19:24:57.596Z,91.56
2023-01-23T19:27:24.000Z,91.33
2023-01-23T19:29:52.731Z,91.56
2023-01-23T19:32:19.167Z,91.52
2023-01-23T19:34:45.608Z,91.61
2023-01-23T19:37:11.936Z,91.63
2023-01-23T19:39:38.348Z,91.70
2023-01-23T19:42:04.704Z,91.73
2023-01-23T19:44:31.113Z,91.83
2023-01-23T19:46:57.541Z,91.75
2023-01-23T19:49:24.045Z,91.71
2023-01-23T19:51:50.402Z,91.66
2023-01-23T19:54:17.005Z,91.65
2023-01-23T19:56:43.376Z,91.72
2023-01-23T19:59:09.783Z,91.67
2023-01-23T20:01:36.065Z,91.58
2023-01-23T20:04:02.461Z,91.78
2023-01-23T20:06:28.827Z,91.91
2023-01-23T20:08:55.225Z,91.90
2023-01-23T20:11:21.600Z,92.18
2023-01-23T20:13:48.310Z,92.44
2023-01-23T20:16:14.649Z,92.44
2023-01-23T20:18:40.993Z,92.26
2023-01-23T20:21:07.710Z,92.15
2023-01-23T20:23:34.309Z,91.70
2023-01-23T20:26:00.670Z,91.60
2023-01-23T20:28:27.031Z,91.53
2023-01-23T20:30:53.440Z,91.49
2023-01-23T20:33:19.937Z,91.85
2023-01-23T20:35:46.299Z,91.63
2023-01-23T20:38:13.098Z,91.36
2023-01-23T20:40:39.441Z,91.38
2023-01-23T20:43:05.862Z,91.48
2023-01-23T20:45:32.272Z,91.75
2023-01-23T20:47:58.906Z,91.84
2023-01-23T20:50:25.262Z,92.01
2023-01-23T20:52:51.669Z,92.32
2023-01-23T20:55:18.187Z,92.21
2023-01-23T20:57:45.025Z,92.45
2023-01-23T21:00:11.355Z,92.42
2023-01-23T21:02:37.742Z,92.27
2023-01-23T21:05:04.070Z,92.24
2023-01-23T21:07:30.457Z,92.16
2023-01-23T21:09:58.889Z,92.19
2023-01-23T21:12:27.754Z,92.12
2023-01-23T21:14:54.080Z,92.01
2023-01-23T21:17:20.585Z,91.99
2023-01-23T21:19:46.917Z,91.97
2023-01-23T21:22:13.260Z,91.88
2023-01-23T21:24:39.670Z,91.80
2023-01-23T21:27:06.043Z,92.00
2023-01-23T21:29:32.360Z,92.09
2023-01-23T21:31:58.970Z,92.15
2023-01-23T21:34:25.286Z,92.29
2023-01-23T21:36:51.647Z,92.29
2023-01-23T21:39:19.112Z,92.33
2023-01-23T21:41:45.459Z,92.30
2023-01-23T21:44:11.897Z,92.49
2023-01-23T21:46:38.483Z,92.50
2023-01-23T21:49:04.820Z,92.79
2023-01-23T21:51:31.211Z,92.76
2023-01-23T21:53:57.588Z,92.75
2023-01-23T21:56:23.938Z,92.77
2023-01-23T21:58:50.668Z,92.86
2023-01-23T22:01:17.131Z,92.89
2023-01-23T22:03:43.620Z,92.83
2023-01-23T22:06:09.958Z,93.05
2023-01-23T22:08:36.334Z,93.00
2023-01-23T22:11:02.936Z,92.87
2023-01-23T22:13:29.294Z,92.85
2023-01-23T22:15:55.718Z,92.90
2023-01-23T22:18:21.995Z,92.73
2023-01-23T22:20:48.371Z,92.54
2023-01-23T22:23:14.750Z,92.65
2023-01-23T22:25:41.075Z,92.61
2023-01-23T22:28:07.414Z,92.82
2023-01-23T22:30:33.891Z,92.79
2023-01-23T22:33:00.200Z,92.83
2023-01-23T22:35:26.591Z,92.79
2023-01-23T22:37:53.129Z,92.71
2023-01-23T22:40:19.636Z,92.52
2023-01-23T22:42:45.943Z,92.61
2023-01-23T22:45:12.538Z,92.46
2023-01-23T22:47:39.081Z,92.46
2023-01-23T22:50:05.475Z,92.65
2023-01-23T22:52:31.889Z,92.64
2023-01-23T22:54:58.273Z,92.49
2023-01-23T22:57:24.581Z,92.30
2023-01-23T22:59:50.962Z,92.34
2023-01-23T23:02:17.279Z,92.29
2023-01-23T23:04:43.684Z,92.28
2023-01-23T23:07:10.004Z,92.24
2023-01-23T23:09:36.351Z,92.10
2023-01-23T23:12:02.682Z,91.94
2023-01-23T23:14:29.162Z,91.97
2023-01-23T23:16:55.581Z,92.26
2023-01-23T23:19:21.896Z,92.44
2023-01-23T23:21:48.255Z,92.53
2023-01-23T23:24:14.690Z,92.43
2023-01-23T23:26:41.001Z,92.46
2023-01-23T23:29:07.375Z,92.52
2023-01-23T23:31:33.811Z,92.62
2023-01-23T23:34:00.126Z,92.61
2023-01-23T23:36:26.461Z,92.60
2023-01-23T23:38:52.798Z,92.90
2023-01-23T23:41:19.134Z,92.97
2023-01-23T23:43:45.532Z,93.00
2023-01-23T23:46:12.023Z,93.12
2023-01-23T23:48:38.243Z,93.12
2023-01-23T23:51:07.511Z,93.29
2023-01-23T23:53:33.863Z,93.33
2023-01-23T23:56:00.223Z,93.55
2023-01-23T23:58:26.645Z,93.66
